aviador You're here:

KGLD Decoded Metar

GOODLAND in KS, USA
Report Time2018-05-27 00:53:00
UTC Time2018-05-27 01:26:05
Flight Rules vfr VFR
Wind160° at 17 Gusting to 28 kt
W.Decomp.*RWY 17: 16.1 kt HW 5.5 kt LCW
RWY 12: 14.6 kt HW 8.8 kt RCW
RWY 23: 3.2 kt HW 16.7 kt LCW
W.Rank160° ranks 4
Current wind is above 160° avg. (11.8)
Visibility9999 m
Phenomena:N/A
Clouds:N/A
Expected CloudBase > 9,600 ft AGL from Temp-Dew spread
CeilingNone
Temp30°C (ISA +22)
Dew Point06°C (22% RH)
Heat Index28.3°C
AAT22.9°C
QNH1009 hPa
Density Alt6,440 ft
Elevation3,652 ft
Report Wrong Elevation
Raw Report
KGLD 270053Z AUTO 16017G28KT 10SM CLR 30/06 A2981 RMK AO2 PK WND
16031/0041 SLP045 T03000056=

Extra information for KGLD:More info

Metar Taf Metar & Taf Last 4 Metars F.Rules Stats Wind Profile Meteogram Temp Stats Airport Information Weather charts Add Link Nearby VenuesMetar ALERT Operation Metar Decoded Social comments

AIRNAV info for KGLD